createdAt,value
2018-01-28T00:01:49.263Z,18.00
2018-01-28T00:04:16.868Z,17.07
2018-01-28T00:06:44.481Z,14.30
2018-01-28T00:09:12.536Z,16.87
2018-01-28T00:11:40.150Z,17.93
2018-01-28T00:14:07.818Z,18.20
2018-01-28T00:16:35.400Z,15.53
2018-01-28T00:19:02.993Z,14.80
2018-01-28T00:21:30.555Z,12.80
2018-01-28T00:23:58.141Z,12.50
2018-01-28T00:26:25.786Z,10.90
2018-01-28T00:28:53.332Z,12.07
2018-01-28T00:31:20.909Z,13.03
2018-01-28T00:33:48.462Z,15.53
2018-01-28T00:36:16.285Z,17.10
2018-01-28T00:38:43.843Z,14.33
2018-01-28T00:41:12.032Z,15.40
2018-01-28T00:43:39.627Z,13.87
2018-01-28T00:46:07.207Z,16.50
2018-01-28T00:48:34.778Z,18.00
2018-01-28T00:51:02.419Z,17.00
2018-01-28T00:53:29.990Z,16.53
2018-01-28T00:55:57.548Z,14.57
2018-01-28T00:58:25.196Z,12.33
2018-01-28T01:00:52.752Z,13.27
2018-01-28T01:03:20.365Z,11.50
2018-01-28T01:05:47.967Z,12.97
2018-01-28T01:08:15.521Z,13.53
2018-01-28T01:10:43.084Z,14.90
2018-01-28T01:13:10.886Z,17.63
2018-01-28T01:15:38.484Z,17.87
2018-01-28T01:18:06.203Z,12.53
2018-01-28T01:20:33.812Z,12.70
2018-01-28T01:23:01.371Z,12.40
2018-01-28T01:25:28.940Z,14.23
2018-01-28T01:27:56.554Z,11.00
2018-01-28T01:30:24.139Z,13.80
2018-01-28T01:32:51.690Z,10.60
2018-01-28T01:35:19.750Z,13.00
2018-01-28T01:37:47.373Z,11.50
2018-01-28T01:40:14.960Z,15.97
2018-01-28T01:42:42.552Z,14.53
2018-01-28T01:45:10.631Z,14.57
2018-01-28T01:47:38.244Z,14.17
2018-01-28T01:50:05.816Z,15.97
2018-01-28T01:52:33.372Z,16.70
2018-01-28T01:55:00.925Z,13.40
2018-01-28T01:57:28.530Z,18.40
2018-01-28T01:59:56.143Z,14.07
2018-01-28T02:02:24.783Z,15.30
2018-01-28T02:04:52.366Z,14.80
2018-01-28T02:07:19.962Z,16.53
2018-01-28T02:09:47.560Z,15.97
2018-01-28T02:12:15.163Z,17.30
2018-01-28T02:14:42.809Z,15.20
2018-01-28T02:17:10.374Z,15.93
2018-01-28T02:19:38.042Z,15.27
2018-01-28T02:22:05.590Z,16.80
2018-01-28T02:24:33.163Z,16.47
2018-01-28T02:27:00.744Z,16.00
2018-01-28T02:29:28.344Z,17.17
2018-01-28T02:31:55.928Z,16.33
2018-01-28T02:34:23.573Z,17.53
2018-01-28T02:36:51.182Z,16.50
2018-01-28T02:39:18.767Z,18.00
2018-01-28T02:41:46.483Z,19.27
2018-01-28T02:44:14.134Z,22.77
2018-01-28T02:46:41.689Z,22.50
2018-01-28T02:49:09.486Z,20.90
2018-01-28T02:51:37.087Z,22.40
2018-01-28T02:54:05.308Z,19.57
2018-01-28T02:56:33.319Z,17.40
2018-01-28T02:59:00.893Z,20.40
2018-01-28T03:01:28.456Z,20.30
2018-01-28T03:03:56.393Z,23.33
2018-01-28T03:06:24.026Z,20.40
2018-01-28T03:08:51.631Z,22.40
2018-01-28T03:11:19.204Z,18.50
2018-01-28T03:13:46.794Z,21.00
2018-01-28T03:16:14.393Z,19.13
2018-01-28T03:18:41.966Z,21.37
2018-01-28T03:21:09.920Z,20.33
2018-01-28T03:23:37.507Z,21.47
2018-01-28T03:26:07.800Z,24.77
2018-01-28T03:28:35.448Z,28.90
2018-01-28T03:31:03.101Z,23.13
2018-01-28T03:33:30.702Z,26.87
2018-01-28T03:35:58.377Z,22.37
2018-01-28T03:38:26.036Z,22.50
2018-01-28T03:40:53.610Z,19.10
2018-01-28T03:43:21.266Z,19.07
2018-01-28T03:45:48.840Z,21.70
2018-01-28T03:48:16.501Z,18.50
2018-01-28T03:50:44.083Z,18.80
2018-01-28T03:53:13.877Z,19.80
2018-01-28T03:55:41.445Z,17.73
2018-01-28T03:58:09.017Z,19.50
2018-01-28T04:00:36.624Z,20.37
2018-01-28T04:03:06.060Z,20.00
2018-01-28T04:05:33.645Z,19.77
2018-01-28T04:08:01.234Z,19.63
2018-01-28T04:10:29.779Z,20.93
2018-01-28T04:12:57.356Z,21.63
2018-01-28T04:15:24.968Z,21.90
2018-01-28T04:17:52.577Z,21.87
2018-01-28T04:20:20.149Z,19.80
2018-01-28T04:22:47.752Z,19.03
2018-01-28T04:25:15.965Z,18.43
2018-01-28T04:27:43.584Z,18.27
2018-01-28T04:30:11.189Z,19.97
2018-01-28T04:32:38.740Z,19.33
2018-01-28T04:35:07.333Z,24.80
2018-01-28T04:37:34.938Z,34.67
2018-01-28T04:40:02.577Z,22.80
2018-01-28T04:42:30.277Z,17.20
2018-01-28T04:44:57.840Z,18.07
2018-01-28T04:47:25.619Z,15.57
2018-01-28T04:49:53.194Z,18.93
2018-01-28T04:52:21.581Z,16.30
2018-01-28T04:54:49.162Z,17.43
2018-01-28T04:57:16.740Z,14.30
2018-01-28T04:59:44.621Z,15.30
2018-01-28T05:02:15.777Z,16.23
2018-01-28T05:04:43.458Z,15.03
2018-01-28T05:07:12.266Z,15.30
2018-01-28T05:09:39.848Z,14.53
2018-01-28T05:12:07.505Z,16.27
2018-01-28T05:14:35.100Z,16.23
2018-01-28T05:17:02.688Z,14.77
2018-01-28T05:19:30.287Z,14.67
2018-01-28T05:21:57.890Z,17.50
2018-01-28T05:24:25.453Z,16.30
2018-01-28T05:26:53.050Z,15.13
2018-01-28T05:29:20.622Z,14.07
2018-01-28T05:31:48.229Z,15.03
2018-01-28T05:34:20.467Z,16.03
2018-01-28T05:36:48.193Z,15.17
2018-01-28T05:39:15.752Z,15.57
2018-01-28T05:41:43.316Z,18.30
2018-01-28T05:44:11.078Z,19.10
2018-01-28T05:46:38.666Z,16.90
2018-01-28T05:49:06.528Z,18.90
2018-01-28T05:51:34.160Z,19.40
2018-01-28T05:54:01.819Z,17.97
2018-01-28T05:56:29.417Z,18.83
2018-01-28T05:58:56.981Z,18.63
2018-01-28T06:01:24.559Z,16.70
2018-01-28T06:03:52.125Z,18.53
2018-01-28T06:06:19.736Z,19.30
2018-01-28T06:08:47.345Z,19.03
2018-01-28T06:11:15.150Z,19.43
2018-01-28T06:13:42.775Z,19.60
2018-01-28T06:16:10.336Z,19.40
2018-01-28T06:18:37.909Z,18.30
2018-01-28T06:21:05.554Z,18.90
2018-01-28T06:23:34.480Z,18.60
2018-01-28T06:26:02.129Z,19.13
2018-01-28T06:28:29.745Z,18.80
2018-01-28T06:30:57.318Z,19.27
2018-01-28T06:33:25.324Z,18.17
2018-01-28T06:35:52.983Z,21.10
2018-01-28T06:38:20.650Z,20.30
2018-01-28T06:40:48.316Z,20.30
2018-01-28T06:43:15.989Z,19.60
2018-01-28T06:45:44.591Z,21.53
2018-01-28T06:48:12.196Z,18.87
2018-01-28T06:50:39.775Z,21.67
2018-01-28T06:53:08.554Z,21.90
2018-01-28T06:55:36.237Z,23.17
2018-01-28T06:58:03.813Z,21.17
2018-01-28T07:00:31.418Z,18.30
2018-01-28T07:02:58.992Z,19.87
2018-01-28T07:05:26.587Z,20.73
2018-01-28T07:07:54.236Z,18.50
2018-01-28T07:10:21.806Z,19.93
2018-01-28T07:12:49.404Z,19.67
2018-01-28T07:15:17.290Z,20.67
2018-01-28T07:17:44.874Z,20.53
2018-01-28T07:20:12.450Z,19.53
2018-01-28T07:22:40.923Z,19.93
2018-01-28T07:25:08.560Z,20.70
2018-01-28T07:27:37.184Z,21.70
2018-01-28T07:30:04.752Z,21.20
2018-01-28T07:32:33.723Z,22.50
2018-01-28T07:35:01.347Z,22.03
2018-01-28T07:37:29.437Z,21.27
2018-01-28T07:39:57.002Z,20.87
2018-01-28T07:42:24.583Z,19.80
2018-01-28T07:44:53.957Z,20.87
2018-01-28T07:47:22.065Z,20.80
2018-01-28T07:49:51.613Z,22.80
2018-01-28T07:52:19.191Z,23.80
2018-01-28T07:54:46.869Z,19.80
2018-01-28T07:57:14.936Z,19.47
2018-01-28T07:59:44.472Z,20.57
2018-01-28T08:02:12.156Z,20.70
2018-01-28T08:04:39.718Z,20.63
2018-01-28T08:07:07.892Z,21.13
2018-01-28T08:09:40.951Z,18.77
2018-01-28T08:12:14.169Z,20.63
2018-01-28T08:14:42.041Z,20.80
2018-01-28T08:17:10.212Z,19.00
2018-01-28T08:19:37.808Z,23.97
2018-01-28T08:22:05.432Z,23.60
2018-01-28T08:24:33.046Z,22.87
2018-01-28T08:30:01.605Z,25.77
2018-01-28T08:32:29.206Z,24.17
2018-01-28T08:34:56.753Z,24.13
2018-01-28T08:39:58.488Z,20.00
2018-01-28T08:42:26.064Z,21.10
2018-01-28T08:44:53.634Z,22.03
2018-01-28T08:47:21.224Z,22.23
2018-01-28T08:49:48.870Z,21.97
2018-01-28T08:52:16.447Z,20.97
2018-01-28T08:54:44.012Z,20.03
2018-01-28T08:57:12.178Z,20.10
2018-01-28T08:59:39.734Z,18.63
2018-01-28T09:02:07.298Z,18.33
2018-01-28T09:04:34.900Z,20.43
2018-01-28T09:07:02.493Z,22.30
2018-01-28T09:09:30.880Z,22.53
2018-01-28T09:11:58.463Z,19.53
2018-01-28T09:14:26.025Z,20.50
2018-01-28T09:16:53.596Z,21.20
2018-01-28T09:19:21.197Z,19.93
2018-01-28T09:21:48.806Z,23.53
2018-01-28T09:24:16.409Z,21.83
2018-01-28T09:26:44.007Z,21.60
2018-01-28T09:29:11.955Z,22.60
2018-01-28T09:31:39.509Z,20.60
2018-01-28T09:34:07.091Z,22.10
2018-01-28T09:36:34.667Z,20.77
2018-01-28T09:39:02.230Z,20.97
2018-01-28T09:41:29.858Z,20.37
2018-01-28T09:43:57.436Z,20.37
2018-01-28T09:46:26.723Z,20.73
2018-01-28T09:48:54.368Z,22.60
2018-01-28T09:51:21.965Z,19.60
2018-01-28T09:53:49.515Z,20.53
2018-01-28T09:56:17.146Z,20.90
2018-01-28T09:58:44.711Z,18.80
2018-01-28T10:01:12.295Z,19.57
2018-01-28T10:03:39.935Z,19.50
2018-01-28T10:06:07.566Z,18.13
2018-01-28T10:08:35.266Z,21.10
2018-01-28T10:11:02.851Z,18.17
2018-01-28T10:13:30.693Z,18.90
2018-01-28T10:15:58.237Z,18.27
2018-01-28T10:18:25.849Z,17.30
2018-01-28T10:20:53.410Z,16.80
2018-01-28T10:23:21.328Z,16.17
2018-01-28T10:25:48.947Z,17.40
2018-01-28T10:28:16.492Z,18.30
2018-01-28T10:30:44.070Z,16.30
2018-01-28T10:33:11.825Z,16.70
2018-01-28T10:35:40.321Z,19.40
2018-01-28T10:38:07.872Z,16.87
2018-01-28T10:40:35.497Z,17.70
2018-01-28T10:43:03.070Z,15.53
2018-01-28T10:45:30.650Z,17.17
2018-01-28T10:47:58.240Z,16.63
2018-01-28T10:50:25.817Z,14.80
2018-01-28T10:52:53.412Z,17.03
2018-01-28T10:55:21.049Z,15.63
2018-01-28T10:57:48.618Z,15.30
2018-01-28T11:00:16.186Z,15.03
2018-01-28T11:02:43.810Z,14.73
2018-01-28T11:05:11.367Z,15.60
2018-01-28T11:07:39.013Z,16.60
2018-01-28T11:10:06.626Z,15.80
2018-01-28T11:12:35.887Z,18.33
2018-01-28T11:15:04.218Z,14.10
2018-01-28T11:17:33.897Z,18.10
2018-01-28T11:20:03.107Z,19.00
2018-01-28T11:22:30.863Z,15.57
2018-01-28T11:24:59.326Z,16.20
2018-01-28T11:27:26.923Z,15.80
2018-01-28T11:29:54.472Z,16.30
2018-01-28T11:32:24.330Z,16.50
2018-01-28T11:34:52.134Z,15.30
2018-01-28T11:37:19.708Z,16.30
2018-01-28T11:39:47.299Z,17.13
2018-01-28T11:42:14.917Z,15.70
2018-01-28T11:44:42.497Z,15.40
2018-01-28T11:47:10.511Z,17.00
2018-01-28T11:49:38.188Z,15.90
2018-01-28T11:52:05.753Z,15.80
2018-01-28T11:54:33.325Z,16.67
2018-01-28T11:57:04.082Z,16.60
2018-01-28T11:59:32.863Z,13.83
2018-01-28T12:02:00.519Z,17.70
2018-01-28T12:04:28.136Z,15.73
2018-01-28T12:06:55.714Z,16.40
2018-01-28T12:09:24.022Z,16.20
2018-01-28T12:11:51.582Z,16.90
2018-01-28T12:14:19.290Z,17.17
2018-01-28T12:16:46.884Z,15.13
2018-01-28T12:19:14.458Z,17.43
2018-01-28T12:21:42.112Z,16.27
2018-01-28T12:24:09.787Z,19.80
2018-01-28T12:26:37.378Z,16.20
2018-01-28T12:29:05.060Z,16.80
2018-01-28T12:31:32.632Z,17.67
2018-01-28T12:34:00.250Z,16.20
2018-01-28T12:36:27.852Z,17.77
2018-01-28T12:38:55.434Z,15.27
2018-01-28T12:41:23.026Z,17.03
2018-01-28T12:43:50.646Z,16.00
2018-01-28T12:46:18.222Z,14.50
2018-01-28T12:48:45.770Z,15.13
2018-01-28T12:51:13.636Z,10.60
2018-01-28T12:53:41.197Z,19.33
2018-01-28T12:56:08.736Z,10.20
2018-01-28T12:58:36.312Z,13.70
2018-01-28T13:01:03.973Z,10.73
2018-01-28T13:03:32.325Z,11.30
2018-01-28T13:05:59.908Z,23.77
2018-01-28T13:08:27.514Z,7.83
2018-01-28T13:10:55.172Z,8.93
2018-01-28T13:13:22.753Z,8.83
2018-01-28T13:15:50.325Z,7.83
2018-01-28T13:18:17.906Z,11.67
2018-01-28T13:20:45.451Z,9.47
2018-01-28T13:26:03.842Z,8.30
2018-01-28T13:28:31.399Z,9.63
2018-01-28T13:30:58.979Z,8.13
2018-01-28T13:33:27.588Z,6.10
2018-01-28T13:35:55.176Z,9.03
2018-01-28T13:38:22.754Z,8.67
2018-01-28T13:40:50.331Z,5.10
2018-01-28T13:43:17.917Z,5.93
2018-01-28T13:45:45.482Z,5.10
2018-01-28T13:48:13.073Z,5.20
2018-01-28T13:50:40.707Z,4.23
2018-01-28T13:53:08.679Z,6.30
2018-01-28T13:55:36.497Z,5.87
2018-01-28T13:58:04.169Z,4.87
2018-01-28T14:00:31.814Z,4.07
2018-01-28T14:02:59.379Z,5.43
2018-01-28T14:05:26.944Z,2.93
2018-01-28T14:07:54.518Z,4.53
2018-01-28T14:10:22.076Z,2.43
2018-01-28T14:12:49.636Z,2.50
2018-01-28T14:15:17.269Z,2.60
2018-01-28T14:17:44.822Z,2.10
2018-01-28T14:20:12.442Z,3.63
2018-01-28T14:22:40.113Z,2.17
2018-01-28T14:25:07.829Z,2.00
2018-01-28T14:27:35.429Z,1.80
2018-01-28T14:30:03.034Z,2.33
2018-01-28T14:32:30.633Z,2.20
2018-01-28T14:34:58.193Z,1.87
2018-01-28T14:37:27.572Z,1.80
2018-01-28T14:39:55.148Z,1.60
2018-01-28T14:42:23.133Z,4.50
2018-01-28T14:44:50.749Z,1.70
2018-01-28T14:47:18.347Z,1.37
2018-01-28T14:49:45.886Z,1.70
2018-01-28T14:52:13.516Z,2.50
2018-01-28T14:54:41.106Z,2.10
2018-01-28T14:57:09.297Z,2.50
2018-01-28T14:59:36.879Z,2.53
2018-01-28T15:02:04.467Z,29.33
2018-01-28T15:04:32.102Z,5.90
2018-01-28T15:06:59.640Z,3.57
2018-01-28T15:09:28.163Z,3.57
2018-01-28T15:11:55.753Z,3.40
2018-01-28T15:14:28.362Z,3.00
2018-01-28T15:16:56.004Z,3.13
2018-01-28T15:19:24.149Z,2.23
2018-01-28T15:21:51.724Z,3.30
2018-01-28T15:24:20.209Z,3.57
2018-01-28T15:26:47.808Z,3.33
2018-01-28T15:29:15.387Z,3.10
2018-01-28T15:31:42.967Z,3.70
2018-01-28T15:34:11.101Z,3.40
2018-01-28T15:36:38.825Z,3.00
2018-01-28T15:39:06.529Z,3.00
2018-01-28T15:41:34.094Z,4.60
2018-01-28T15:44:05.855Z,3.23
2018-01-28T15:46:33.501Z,3.47
2018-01-28T15:49:01.232Z,3.23
2018-01-28T15:51:29.776Z,2.93
2018-01-28T15:53:57.745Z,3.20
2018-01-28T15:56:25.332Z,3.60
2018-01-28T15:58:52.971Z,3.83
2018-01-28T16:01:21.144Z,3.73
2018-01-28T16:03:48.902Z,5.43
2018-01-28T16:06:16.492Z,5.53
2018-01-28T16:08:44.053Z,5.20
2018-01-28T16:11:11.658Z,5.40
2018-01-28T16:13:39.245Z,5.30
2018-01-28T16:16:06.788Z,6.10
2018-01-28T16:18:34.632Z,6.00
2018-01-28T16:21:02.170Z,6.33
2018-01-28T16:23:29.743Z,4.60
2018-01-28T16:25:57.304Z,4.90
2018-01-28T16:28:24.892Z,5.70
2018-01-28T16:30:52.470Z,5.47
2018-01-28T16:33:20.042Z,6.17
2018-01-28T16:35:47.593Z,5.40
2018-01-28T16:38:15.262Z,6.00
2018-01-28T16:40:42.831Z,5.00
2018-01-28T16:43:10.996Z,5.60
2018-01-28T16:45:38.558Z,5.90
2018-01-28T16:48:06.243Z,5.70
2018-01-28T16:50:33.842Z,4.63
2018-01-28T16:53:01.412Z,6.37
2018-01-28T16:55:29.001Z,5.30
2018-01-28T16:57:56.577Z,5.30
2018-01-28T17:00:24.149Z,4.43
2018-01-28T17:02:51.745Z,4.93
2018-01-28T17:05:19.576Z,4.70
2018-01-28T17:07:47.187Z,4.40
2018-01-28T17:10:14.823Z,5.33
2018-01-28T17:12:42.623Z,5.60
2018-01-28T17:15:11.976Z,4.93
2018-01-28T17:17:39.548Z,4.40
2018-01-28T17:20:07.153Z,4.63
2018-01-28T17:22:34.692Z,4.73
2018-01-28T17:25:02.327Z,5.00
2018-01-28T17:27:30.632Z,4.50
2018-01-28T17:29:58.222Z,5.17
2018-01-28T17:32:25.804Z,5.03
2018-01-28T17:34:53.570Z,6.30
2018-01-28T17:37:21.311Z,5.80
2018-01-28T17:39:48.928Z,7.23
2018-01-28T17:42:16.489Z,6.40
2018-01-28T17:44:44.056Z,5.13
2018-01-28T17:47:12.425Z,7.07
2018-01-28T17:49:39.992Z,6.23
2018-01-28T17:52:07.548Z,7.10
2018-01-28T17:54:35.108Z,5.57
2018-01-28T17:57:02.684Z,5.73
2018-01-28T17:59:30.259Z,7.53
2018-01-28T18:01:57.877Z,8.13
2018-01-28T18:06:57.225Z,5.53
2018-01-28T18:09:24.963Z,6.00
2018-01-28T18:11:52.650Z,7.50
2018-01-28T18:14:20.237Z,6.40
2018-01-28T18:16:47.820Z,6.33
2018-01-28T18:19:15.392Z,7.87
2018-01-28T18:21:42.946Z,7.10
2018-01-28T18:24:10.534Z,7.10
2018-01-28T18:26:38.104Z,6.17
2018-01-28T18:29:05.780Z,6.40
2018-01-28T18:31:33.413Z,5.27
2018-01-28T18:34:00.994Z,4.77
2018-01-28T18:36:28.595Z,5.80
2018-01-28T18:38:56.144Z,6.67
2018-01-28T18:41:23.712Z,5.23
2018-01-28T18:43:51.312Z,5.50
2018-01-28T18:49:09.660Z,6.70
2018-01-28T18:51:37.262Z,4.67
2018-01-28T18:54:05.117Z,6.53
2018-01-28T18:56:32.739Z,5.37
2018-01-28T18:59:00.411Z,6.00
2018-01-28T19:01:28.039Z,6.80
2018-01-28T19:03:55.994Z,6.20
2018-01-28T19:06:23.885Z,6.33
2018-01-28T19:08:51.623Z,5.53
2018-01-28T19:11:19.266Z,6.00
2018-01-28T19:13:47.667Z,5.73
2018-01-28T19:16:15.220Z,6.67
2018-01-28T19:18:44.140Z,6.10
2018-01-28T19:21:11.890Z,6.90
2018-01-28T19:23:40.541Z,6.30
2018-01-28T19:26:08.177Z,5.33
2018-01-28T19:28:35.875Z,6.20
2018-01-28T19:31:03.649Z,7.97
2018-01-28T19:33:31.205Z,5.10
2018-01-28T19:35:58.788Z,5.53
2018-01-28T19:38:26.456Z,5.90
2018-01-28T19:40:54.760Z,5.80
2018-01-28T19:43:22.417Z,5.40
2018-01-28T19:45:51.118Z,5.80
2018-01-28T19:48:18.826Z,6.40
2018-01-28T19:50:46.429Z,6.17
2018-01-28T19:53:15.255Z,5.17
2018-01-28T19:55:43.082Z,4.90
2018-01-28T19:58:10.940Z,5.33
2018-01-28T20:00:38.749Z,6.03
2018-01-28T20:03:06.573Z,5.50
2018-01-28T20:05:34.279Z,5.50
2018-01-28T20:08:02.104Z,5.83
2018-01-28T20:10:30.607Z,6.07
2018-01-28T20:12:58.718Z,5.33
2018-01-28T20:15:26.701Z,4.60
2018-01-28T20:17:54.573Z,4.87
2018-01-28T20:20:22.590Z,6.17
2018-01-28T20:22:50.461Z,4.90
2018-01-28T20:25:18.719Z,5.37
2018-01-28T20:27:46.600Z,6.80
2018-01-28T20:30:14.513Z,5.93
2018-01-28T20:32:42.379Z,6.90
2018-01-28T20:35:11.391Z,5.10
2018-01-28T20:37:39.052Z,3.97
2018-01-28T20:40:06.645Z,4.60
2018-01-28T20:42:34.296Z,5.03
2018-01-28T20:45:01.860Z,4.23
2018-01-28T20:47:29.545Z,5.00
2018-01-28T20:49:57.289Z,4.30
2018-01-28T20:52:24.858Z,6.77
2018-01-28T20:54:52.418Z,5.37
2018-01-28T20:57:20.707Z,5.50
2018-01-28T20:59:48.632Z,4.97
2018-01-28T21:02:16.234Z,6.03
2018-01-28T21:04:44.277Z,5.00
2018-01-28T21:07:12.062Z,5.17
2018-01-28T21:09:39.684Z,4.73
2018-01-28T21:12:07.281Z,3.90
2018-01-28T21:14:34.844Z,5.60
2018-01-28T21:17:02.374Z,5.07
2018-01-28T21:19:29.980Z,4.93
2018-01-28T21:21:57.626Z,4.70
2018-01-28T21:24:25.209Z,5.57
2018-01-28T21:26:52.884Z,5.00
2018-01-28T21:29:20.425Z,4.33
2018-01-28T21:31:48.163Z,4.50
2018-01-28T21:34:16.821Z,4.10
2018-01-28T21:36:44.504Z,4.07
2018-01-28T21:39:12.174Z,4.73
2018-01-28T21:41:39.779Z,4.20
2018-01-28T21:44:07.394Z,6.30
2018-01-28T21:46:35.234Z,5.87
2018-01-28T21:49:02.847Z,4.60
2018-01-28T21:51:32.115Z,8.27
2018-01-28T21:53:59.768Z,5.00
2018-01-28T21:56:27.351Z,4.63
2018-01-28T21:58:55.080Z,5.17
2018-01-28T22:01:22.710Z,4.23
2018-01-28T22:03:50.323Z,4.50
2018-01-28T22:06:17.921Z,3.50
2018-01-28T22:08:45.587Z,3.40
2018-01-28T22:11:14.472Z,4.83
2018-01-28T22:13:42.493Z,4.03
2018-01-28T22:16:10.206Z,3.87
2018-01-28T22:18:37.789Z,4.40
2018-01-28T22:21:05.960Z,4.27
2018-01-28T22:23:33.653Z,4.30
2018-01-28T22:26:01.215Z,4.97
2018-01-28T22:28:28.784Z,4.70
2018-01-28T22:30:56.359Z,3.90
2018-01-28T22:33:23.959Z,4.60
2018-01-28T22:35:51.586Z,5.60
2018-01-28T22:38:19.156Z,4.30
2018-01-28T22:40:46.770Z,5.10
2018-01-28T22:43:14.940Z,5.23
2018-01-28T22:45:42.512Z,5.20
2018-01-28T22:48:10.097Z,5.10
2018-01-28T22:50:37.752Z,5.43
2018-01-28T22:53:05.501Z,5.80
2018-01-28T22:55:33.139Z,5.53
2018-01-28T22:58:00.690Z,5.33
2018-01-28T23:00:28.303Z,5.10
2018-01-28T23:02:58.433Z,5.23
2018-01-28T23:05:26.040Z,6.27
2018-01-28T23:07:53.596Z,5.90
2018-01-28T23:10:23.219Z,5.80
2018-01-28T23:12:51.763Z,5.87
2018-01-28T23:15:19.498Z,7.90
2018-01-28T23:17:47.285Z,5.33
2018-01-28T23:20:14.911Z,7.20
2018-01-28T23:22:42.492Z,7.30
2018-01-28T23:25:10.742Z,6.07
2018-01-28T23:27:38.311Z,6.00
2018-01-28T23:30:05.854Z,6.10
2018-01-28T23:32:34.800Z,6.10
2018-01-28T23:35:03.527Z,5.93
2018-01-28T23:37:31.158Z,8.33
2018-01-28T23:39:58.785Z,5.03
2018-01-28T23:42:26.317Z,4.60
2018-01-28T23:44:53.913Z,8.37
2018-01-28T23:47:21.548Z,5.30
2018-01-28T23:49:49.114Z,4.80
2018-01-28T23:52:16.661Z,6.10
2018-01-28T23:54:44.254Z,4.97
2018-01-28T23:57:14.187Z,5.00
2018-01-28T23:59:41.784Z,5.20
